Sac City, IA

1:56 AM CDT on May 07, 2015 (GMT -0500)
Odebolt Methodist Church | | Change Station
CLOSE
Current Station
Personal Weather Station
Location: Odebolt, IA
Elevation: 1381 ft
Nearby Weather Stations

Elev 1381 ft 42.31 °N, 95.25 °W | Updated 11 seconds ago

Thunderstorm
Thunderstorm
61.7 °F
Feels Like 61.7 °F
N
0.0
Wind Variable Wind from SW
Gusts 4.0 mph

Today
High -- | Low -- °F
--% Chance of Precip.
Yesterday
High -- | Low -- °F
Precip. -- in
6:07 AM 8:26 PM
Waning Gibbous, 90% visible
Pressure 29.77 in
Visibility 3.0 miles
Clouds Few 800 ft
Mostly Cloudy 3000 ft
Overcast 3700 ft
Dew Point 60 °F
Humidity 96%
Rainfall 0.58 in
Snow Depth Not available.
UV 0 out of 12
Pollen 8.30 out of 12
Air Quality Not available.
Flu Activity Local Activity
METAR KSLB 070635Z AUTO 18019KT 3SM RA FEW008 BKN030 OVC037 17/16 A2977 RMK AO2

More Conditions Fewer Conditions

Pressure 29.77 in
Visibility 3.0 miles
Clouds Few 800 ft
Mostly Cloudy 3000 ft
Overcast 3700 ft
Dew Point 60 °F
Humidity 96%
Rainfall 0.58 in
Snow Depth Not available.
UV 0 out of 12
Pollen 8.30 out of 12
Air Quality Not available.
Flu Activity Local Activity
METAR KSLB 070635Z AUTO 18019KT 3SM RA FEW008 BKN030 OVC037 17/16 A2977 RMK AO2

More Conditions Fewer Conditions

10-Day Weather Forecast

Almanac

Astronomy

May. 07, 2015 Rise Set
Actual Time
Civil Twilight
Nautical Twilight
Astronomical Twilight
Moon
Length of Visible Light
Length of Day
Tomorrow will be .
, % of the Moon is Illuminated

Today's Extremes

State Highs State Lows

Community

WunderPhotos

Upload Photos

1,819,126 photos uploaded!

WunderBlogs® & News

Nearby

Air Quality

  Air Quality AQ Index Pollutant
Not available.

Snow Depth

Station Depth Elevation

Earthquake Activity

City Distance Mag. Time & Date
Minimum magnitude displayed is 2.5.

Coastal Water Temperatures

Place Temperature

Stations

Nearby Weather Stations

Station Location Temp. Windchill Dew Point Humidity Wind Precip. Elev Updated Type